Palm Springs, CA

21:01 PDT le 20 septembre 2014 (GMT -0700)
Palm Springs International | Change Station
CLOSE
Current Station
Aéroport
Location: Palm Springs,
Altitude: 476 ft
Stations météo à proximité

Alt. 476 ft 33.82 °N, 116.50 °W | Updated 8 minutes ago

Ciel dégagé
Ciel dégagé
88 ° F
Paraît 87 ° F
N
18
Vent Variable Vent de NO
Gusts 24 mph

Aujourd'hui
Haut(e) -- | Bas -- ° F
--% Risque de précip.
Hier
Haut(e) -- | Bas -- ° F
Precip. -- pouce
6:32 AM 6:45 PM
Lune descendante, 9% visible
Pression 29.78 pouce
Visibilité 10.0 Miles terrestres
Nuages Ciel dégagé
indice de chaleur 87 ° F
Point de rosée 57 ° F
Humidité 35%
Précipitations 0.00 pouce
Profondeur de la couche neigeuse 1 in , 1 in , 0 in
UV 0 sur 12
Pollen 5.50 sur 12
Ozone Bon
Flu Activity Non disponible.
METAR KPSP 210353Z 31016G21KT 10SM CLR 31/14 A2979 RMK AO2 SLP083 T03110139

More Conditions Fewer Conditions

Pression 29.78 pouce
Visibilité 10.0 Miles terrestres
Nuages Ciel dégagé
indice de chaleur 87 ° F
Point de rosée 57 ° F
Humidité 35%
Précipitations 0.00 pouce
Profondeur de la couche neigeuse 1 in , 1 in , 0 in
UV 0 sur 12
Pollen 5.50 sur 12
Ozone Bon
Flu Activity Non disponible.
METAR KPSP 210353Z 31016G21KT 10SM CLR 31/14 A2979 RMK AO2 SLP083 T03110139

More Conditions Fewer Conditions

10-Day Weather Forecast

Almanac

Astronomie

Sep. 20, 2014 Lever Coucher
Temps réel 06:32 PDT 18:45 PDT
Crépuscule civil 06:07 PDT 19:10 PDT
Crépuscule nautique 05:38 PDT 19:39 PDT
Crépuscule astronomique 05:09 PDT 20:08 PDT
Lune 03:23 PDT (9/20) 16:45 PDT (9/20)
Durée de lumière visible 13h 02m
Longueur du jour
12h 12m
Tomorrow will be 2m 6s shorter.
Lune descendante, 9% of the Moon is Illuminated
Sep 21
Lune descendante
Sep 24
Nouveau
Oct 1
Premier quartier
Oct 8
Pleine lune
Oct 15
Dernier quartier

Extrêmes aujourd'hui

State Highs State Lows

Community

WunderPhotos

Upload Photos

1,755,084 Photos téléchargées !

Nearby

Qualité de l'air

  Qualité de l'air Indice de la qualité de l'air Polluant
Hier Moyen
PM10
Hier Bon
OZONE
Actuel Bon
OZONE
dimanche Bon
PM10
dimanche Moyen
OZONE
dimanche Bon
CO
dimanche Bon
NO2

Épaisseur de neige

Station Depth Altitude
Summit Meadow 1 in 9122 ft
Spratt Creek 1 in 6200 ft
Monitor Pass 0 in 8350 ft
Leavitt Meadows 2 in 7200 ft
Leavitt Lake 2 in 9400 ft

Activité sismique

Ville Distance Mag. Time & Date
Aguanga, California 29 Miles terrestres 2.5 01:38 PDT
2014-09-19
Minimum magnitude displayed is 2.5.

Températures des eaux côtières

Lieu Température
Aucun rapport de station

Stations météo à proximité